sensor_id;sensor_type;location;lat;lon;timestamp;P1;durP1;ratioP1;P2;durP2;ratioP2
18042;SDS011;9146;48.074;11.968;2023-01-29T00:01:13;25.10;;;12.57;;
18042;SDS011;9146;48.074;11.968;2023-01-29T00:03:40;23.07;;;13.23;;
18042;SDS011;9146;48.074;11.968;2023-01-29T00:06:09;25.00;;;14.40;;
18042;SDS011;9146;48.074;11.968;2023-01-29T00:08:37;22.90;;;12.40;;
18042;SDS011;9146;48.074;11.968;2023-01-29T00:11:05;24.60;;;15.00;;
18042;SDS011;9146;48.074;11.968;2023-01-29T00:13:33;24.00;;;13.10;;
18042;SDS011;9146;48.074;11.968;2023-01-29T00:16:01;22.50;;;13.80;;
18042;SDS011;9146;48.074;11.968;2023-01-29T00:18:29;26.77;;;13.77;;
18042;SDS011;9146;48.074;11.968;2023-01-29T00:20:56;27.40;;;13.57;;
18042;SDS011;9146;48.074;11.968;2023-01-29T00:23:24;25.23;;;14.40;;
18042;SDS011;9146;48.074;11.968;2023-01-29T00:25:52;24.17;;;12.57;;
18042;SDS011;9146;48.074;11.968;2023-01-29T00:28:18;22.83;;;12.87;;
18042;SDS011;9146;48.074;11.968;2023-01-29T00:30:45;22.10;;;12.97;;
18042;SDS011;9146;48.074;11.968;2023-01-29T00:33:12;24.57;;;15.03;;
18042;SDS011;9146;48.074;11.968;2023-01-29T00:35:39;24.67;;;14.63;;
18042;SDS011;9146;48.074;11.968;2023-01-29T00:38:07;27.60;;;15.17;;
18042;SDS011;9146;48.074;11.968;2023-01-29T00:40:37;29.50;;;16.37;;
18042;SDS011;9146;48.074;11.968;2023-01-29T00:43:22;25.97;;;15.40;;
18042;SDS011;9146;48.074;11.968;2023-01-29T00:46:08;31.30;;;17.40;;
18042;SDS011;9146;48.074;11.968;2023-01-29T00:48:35;29.03;;;15.90;;
18042;SDS011;9146;48.074;11.968;2023-01-29T00:51:02;30.70;;;15.97;;
18042;SDS011;9146;48.074;11.968;2023-01-29T00:53:30;22.47;;;12.30;;
18042;SDS011;9146;48.074;11.968;2023-01-29T00:55:58;28.20;;;14.10;;
18042;SDS011;9146;48.074;11.968;2023-01-29T00:58:25;24.90;;;14.10;;
18042;SDS011;9146;48.074;11.968;2023-01-29T01:00:58;24.93;;;13.10;;
18042;SDS011;9146;48.074;11.968;2023-01-29T01:03:26;20.90;;;12.27;;
18042;SDS011;9146;48.074;11.968;2023-01-29T01:06:01;26.10;;;14.40;;
18042;SDS011;9146;48.074;11.968;2023-01-29T01:08:28;23.90;;;13.77;;
18042;SDS011;9146;48.074;11.968;2023-01-29T01:11:14;25.73;;;14.57;;
18042;SDS011;9146;48.074;11.968;2023-01-29T01:13:41;21.23;;;13.03;;
18042;SDS011;9146;48.074;11.968;2023-01-29T01:16:08;22.40;;;12.30;;
18042;SDS011;9146;48.074;11.968;2023-01-29T01:18:36;20.80;;;12.93;;
18042;SDS011;9146;48.074;11.968;2023-01-29T01:21:03;23.80;;;12.63;;
18042;SDS011;9146;48.074;11.968;2023-01-29T01:23:31;22.03;;;12.73;;
18042;SDS011;9146;48.074;11.968;2023-01-29T01:25:57;24.03;;;14.00;;
18042;SDS011;9146;48.074;11.968;2023-01-29T01:28:26;21.60;;;13.70;;
18042;SDS011;9146;48.074;11.968;2023-01-29T01:30:54;22.43;;;12.87;;
18042;SDS011;9146;48.074;11.968;2023-01-29T01:33:20;20.40;;;13.53;;
18042;SDS011;9146;48.074;11.968;2023-01-29T01:35:47;25.53;;;14.13;;
18042;SDS011;9146;48.074;11.968;2023-01-29T01:38:14;19.20;;;12.33;;
18042;SDS011;9146;48.074;11.968;2023-01-29T01:40:43;22.27;;;13.00;;
18042;SDS011;9146;48.074;11.968;2023-01-29T01:43:11;21.70;;;13.00;;
18042;SDS011;9146;48.074;11.968;2023-01-29T01:45:39;20.90;;;12.60;;
18042;SDS011;9146;48.074;11.968;2023-01-29T01:48:09;21.93;;;13.27;;
18042;SDS011;9146;48.074;11.968;2023-01-29T01:50:41;19.50;;;12.10;;
18042;SDS011;9146;48.074;11.968;2023-01-29T01:53:11;22.90;;;12.33;;
18042;SDS011;9146;48.074;11.968;2023-01-29T01:55:41;23.50;;;11.83;;
18042;SDS011;9146;48.074;11.968;2023-01-29T01:58:14;25.50;;;14.03;;
18042;SDS011;9146;48.074;11.968;2023-01-29T02:00:48;24.73;;;13.60;;
18042;SDS011;9146;48.074;11.968;2023-01-29T02:03:15;22.23;;;13.63;;
18042;SDS011;9146;48.074;11.968;2023-01-29T02:06:02;21.63;;;13.27;;
18042;SDS011;9146;48.074;11.968;2023-01-29T02:08:49;23.87;;;13.30;;
18042;SDS011;9146;48.074;11.968;2023-01-29T02:11:37;23.97;;;13.30;;
18042;SDS011;9146;48.074;11.968;2023-01-29T02:14:04;21.73;;;11.77;;
18042;SDS011;9146;48.074;11.968;2023-01-29T02:16:34;20.53;;;12.33;;
18042;SDS011;9146;48.074;11.968;2023-01-29T02:19:00;17.83;;;12.10;;
18042;SDS011;9146;48.074;11.968;2023-01-29T02:21:34;22.83;;;13.80;;
18042;SDS011;9146;48.074;11.968;2023-01-29T02:27:12;18.27;;;11.50;;
18042;SDS011;9146;48.074;11.968;2023-01-29T02:29:46;21.03;;;13.17;;
18042;SDS011;9146;48.074;11.968;2023-01-29T02:32:23;19.40;;;11.17;;
18042;SDS011;9146;48.074;11.968;2023-01-29T02:34:59;20.17;;;12.20;;
18042;SDS011;9146;48.074;11.968;2023-01-29T02:37:57;17.60;;;10.77;;
18042;SDS011;9146;48.074;11.968;2023-01-29T02:40:35;16.00;;;10.70;;
18042;SDS011;9146;48.074;11.968;2023-01-29T02:43:10;15.40;;;11.17;;
18042;SDS011;9146;48.074;11.968;2023-01-29T02:45:52;18.03;;;11.30;;
18042;SDS011;9146;48.074;11.968;2023-01-29T02:48:27;17.63;;;11.33;;
18042;SDS011;9146;48.074;11.968;2023-01-29T02:51:03;18.03;;;12.50;;
18042;SDS011;9146;48.074;11.968;2023-01-29T02:53:34;17.57;;;11.60;;
18042;SDS011;9146;48.074;11.968;2023-01-29T02:56:10;19.43;;;11.13;;
18042;SDS011;9146;48.074;11.968;2023-01-29T02:58:41;19.17;;;12.17;;
18042;SDS011;9146;48.074;11.968;2023-01-29T03:01:12;18.23;;;11.83;;
18042;SDS011;9146;48.074;11.968;2023-01-29T03:03:43;23.87;;;14.50;;
18042;SDS011;9146;48.074;11.968;2023-01-29T03:06:15;24.83;;;14.30;;
18042;SDS011;9146;48.074;11.968;2023-01-29T03:08:48;26.30;;;13.50;;
18042;SDS011;9146;48.074;11.968;2023-01-29T03:11:19;20.67;;;12.90;;
18042;SDS011;9146;48.074;11.968;2023-01-29T03:13:47;20.77;;;14.10;;
18042;SDS011;9146;48.074;11.968;2023-01-29T03:16:20;23.37;;;13.90;;
18042;SDS011;9146;48.074;11.968;2023-01-29T03:18:53;18.87;;;13.03;;
18042;SDS011;9146;48.074;11.968;2023-01-29T03:21:24;22.27;;;12.70;;
18042;SDS011;9146;48.074;11.968;2023-01-29T03:24:14;29.93;;;14.30;;
18042;SDS011;9146;48.074;11.968;2023-01-29T03:27:03;29.67;;;14.50;;
18042;SDS011;9146;48.074;11.968;2023-01-29T03:29:53;22.57;;;12.13;;
18042;SDS011;9146;48.074;11.968;2023-01-29T03:32:41;21.47;;;12.40;;
18042;SDS011;9146;48.074;11.968;2023-01-29T03:35:09;24.97;;;15.20;;
18042;SDS011;9146;48.074;11.968;2023-01-29T03:37:45;28.17;;;15.60;;
18042;SDS011;9146;48.074;11.968;2023-01-29T03:40:13;33.47;;;17.60;;
18042;SDS011;9146;48.074;11.968;2023-01-29T03:42:43;32.30;;;17.10;;
18042;SDS011;9146;48.074;11.968;2023-01-29T03:45:23;43.53;;;18.27;;
18042;SDS011;9146;48.074;11.968;2023-01-29T03:48:00;32.03;;;17.37;;
18042;SDS011;9146;48.074;11.968;2023-01-29T03:50:34;39.17;;;19.60;;
18042;SDS011;9146;48.074;11.968;2023-01-29T03:53:08;38.17;;;19.37;;
18042;SDS011;9146;48.074;11.968;2023-01-29T03:55:43;35.07;;;19.10;;
18042;SDS011;9146;48.074;11.968;2023-01-29T03:58:21;32.60;;;17.80;;
18042;SDS011;9146;48.074;11.968;2023-01-29T04:00:52;31.90;;;18.80;;
18042;SDS011;9146;48.074;11.968;2023-01-29T04:03:25;39.37;;;20.37;;
18042;SDS011;9146;48.074;11.968;2023-01-29T04:06:01;33.80;;;19.57;;
18042;SDS011;9146;48.074;11.968;2023-01-29T04:08:35;44.03;;;20.33;;
18042;SDS011;9146;48.074;11.968;2023-01-29T04:11:08;44.37;;;21.40;;
18042;SDS011;9146;48.074;11.968;2023-01-29T04:13:38;37.10;;;22.07;;
18042;SDS011;9146;48.074;11.968;2023-01-29T04:16:06;37.50;;;22.50;;
18042;SDS011;9146;48.074;11.968;2023-01-29T04:18:39;44.57;;;23.10;;
18042;SDS011;9146;48.074;11.968;2023-01-29T04:21:09;38.60;;;21.90;;
18042;SDS011;9146;48.074;11.968;2023-01-29T04:23:36;34.97;;;19.70;;
18042;SDS011;9146;48.074;11.968;2023-01-29T04:26:19;37.90;;;21.30;;
18042;SDS011;9146;48.074;11.968;2023-01-29T04:28:58;32.80;;;19.73;;
18042;SDS011;9146;48.074;11.968;2023-01-29T04:31:42;37.43;;;19.50;;
18042;SDS011;9146;48.074;11.968;2023-01-29T04:34:17;42.57;;;20.63;;
18042;SDS011;9146;48.074;11.968;2023-01-29T04:36:52;36.43;;;19.47;;
18042;SDS011;9146;48.074;11.968;2023-01-29T04:39:30;36.67;;;18.07;;
18042;SDS011;9146;48.074;11.968;2023-01-29T04:42:04;33.37;;;18.33;;
18042;SDS011;9146;48.074;11.968;2023-01-29T04:44:37;37.47;;;19.53;;
18042;SDS011;9146;48.074;11.968;2023-01-29T04:47:11;40.03;;;21.13;;
18042;SDS011;9146;48.074;11.968;2023-01-29T04:49:48;32.73;;;18.13;;
18042;SDS011;9146;48.074;11.968;2023-01-29T04:52:22;33.50;;;16.03;;
18042;SDS011;9146;48.074;11.968;2023-01-29T04:54:59;34.13;;;18.93;;
18042;SDS011;9146;48.074;11.968;2023-01-29T04:57:31;35.60;;;19.70;;
18042;SDS011;9146;48.074;11.968;2023-01-29T05:00:03;34.60;;;17.07;;
18042;SDS011;9146;48.074;11.968;2023-01-29T05:02:36;29.67;;;17.10;;
18042;SDS011;9146;48.074;11.968;2023-01-29T05:05:06;35.00;;;20.63;;
18042;SDS011;9146;48.074;11.968;2023-01-29T05:07:35;35.83;;;18.60;;
18042;SDS011;9146;48.074;11.968;2023-01-29T05:10:04;34.63;;;19.00;;
18042;SDS011;9146;48.074;11.968;2023-01-29T05:12:34;34.33;;;17.67;;
18042;SDS011;9146;48.074;11.968;2023-01-29T05:15:04;34.37;;;17.80;;
18042;SDS011;9146;48.074;11.968;2023-01-29T05:17:36;32.40;;;17.80;;
18042;SDS011;9146;48.074;11.968;2023-01-29T05:20:03;39.17;;;21.00;;
18042;SDS011;9146;48.074;11.968;2023-01-29T05:22:36;32.77;;;18.77;;
18042;SDS011;9146;48.074;11.968;2023-01-29T05:25:08;27.13;;;16.60;;
18042;SDS011;9146;48.074;11.968;2023-01-29T05:27:45;33.30;;;19.27;;
18042;SDS011;9146;48.074;11.968;2023-01-29T05:30:30;44.03;;;22.80;;
18042;SDS011;9146;48.074;11.968;2023-01-29T05:32:59;41.57;;;21.00;;
18042;SDS011;9146;48.074;11.968;2023-01-29T05:35:27;36.03;;;18.90;;
18042;SDS011;9146;48.074;11.968;2023-01-29T05:37:54;37.23;;;20.43;;
18042;SDS011;9146;48.074;11.968;2023-01-29T05:40:21;37.07;;;19.93;;
18042;SDS011;9146;48.074;11.968;2023-01-29T05:42:49;34.30;;;20.40;;
18042;SDS011;9146;48.074;11.968;2023-01-29T05:45:16;41.67;;;20.03;;
18042;SDS011;9146;48.074;11.968;2023-01-29T05:47:43;36.27;;;19.27;;
18042;SDS011;9146;48.074;11.968;2023-01-29T05:50:11;37.17;;;21.70;;
18042;SDS011;9146;48.074;11.968;2023-01-29T05:52:40;44.07;;;23.90;;
18042;SDS011;9146;48.074;11.968;2023-01-29T05:55:07;45.50;;;24.00;;
18042;SDS011;9146;48.074;11.968;2023-01-29T05:57:35;38.63;;;20.63;;
18042;SDS011;9146;48.074;11.968;2023-01-29T06:00:03;37.13;;;17.93;;
18042;SDS011;9146;48.074;11.968;2023-01-29T06:02:31;36.77;;;20.70;;
18042;SDS011;9146;48.074;11.968;2023-01-29T06:04:58;29.83;;;19.70;;
18042;SDS011;9146;48.074;11.968;2023-01-29T06:07:25;34.77;;;18.77;;
18042;SDS011;9146;48.074;11.968;2023-01-29T06:09:53;38.37;;;19.50;;
18042;SDS011;9146;48.074;11.968;2023-01-29T06:12:20;38.43;;;19.77;;
18042;SDS011;9146;48.074;11.968;2023-01-29T06:14:47;41.03;;;20.43;;
18042;SDS011;9146;48.074;11.968;2023-01-29T06:17:14;43.90;;;22.07;;
18042;SDS011;9146;48.074;11.968;2023-01-29T06:19:41;43.33;;;21.50;;
18042;SDS011;9146;48.074;11.968;2023-01-29T06:22:08;39.60;;;19.43;;
18042;SDS011;9146;48.074;11.968;2023-01-29T06:24:35;37.80;;;18.57;;
18042;SDS011;9146;48.074;11.968;2023-01-29T06:27:06;35.73;;;20.13;;
18042;SDS011;9146;48.074;11.968;2023-01-29T06:29:33;36.83;;;20.90;;
18042;SDS011;9146;48.074;11.968;2023-01-29T06:32:00;34.47;;;20.47;;
18042;SDS011;9146;48.074;11.968;2023-01-29T06:34:27;34.90;;;18.83;;
18042;SDS011;9146;48.074;11.968;2023-01-29T06:36:54;38.97;;;19.53;;
18042;SDS011;9146;48.074;11.968;2023-01-29T06:39:21;41.53;;;21.07;;
18042;SDS011;9146;48.074;11.968;2023-01-29T06:41:48;41.40;;;20.87;;
18042;SDS011;9146;48.074;11.968;2023-01-29T06:44:16;40.70;;;19.10;;
18042;SDS011;9146;48.074;11.968;2023-01-29T06:46:43;36.33;;;19.63;;
18042;SDS011;9146;48.074;11.968;2023-01-29T06:49:10;32.57;;;16.83;;
18042;SDS011;9146;48.074;11.968;2023-01-29T06:51:37;38.43;;;19.93;;
18042;SDS011;9146;48.074;11.968;2023-01-29T06:54:04;33.90;;;18.77;;
18042;SDS011;9146;48.074;11.968;2023-01-29T06:56:32;39.10;;;20.80;;
18042;SDS011;9146;48.074;11.968;2023-01-29T06:58:59;37.77;;;19.63;;
18042;SDS011;9146;48.074;11.968;2023-01-29T07:01:28;30.40;;;17.60;;
18042;SDS011;9146;48.074;11.968;2023-01-29T07:03:55;37.67;;;20.70;;
18042;SDS011;9146;48.074;11.968;2023-01-29T07:06:25;42.27;;;19.17;;
18042;SDS011;9146;48.074;11.968;2023-01-29T07:08:53;35.23;;;20.20;;
18042;SDS011;9146;48.074;11.968;2023-01-29T07:11:20;35.10;;;19.83;;
18042;SDS011;9146;48.074;11.968;2023-01-29T07:13:47;31.70;;;19.03;;
18042;SDS011;9146;48.074;11.968;2023-01-29T07:16:14;31.37;;;19.47;;
18042;SDS011;9146;48.074;11.968;2023-01-29T07:18:42;34.23;;;20.03;;
18042;SDS011;9146;48.074;11.968;2023-01-29T07:21:09;36.33;;;21.10;;
18042;SDS011;9146;48.074;11.968;2023-01-29T07:23:36;40.07;;;20.67;;
18042;SDS011;9146;48.074;11.968;2023-01-29T07:26:04;41.47;;;21.70;;
18042;SDS011;9146;48.074;11.968;2023-01-29T07:28:34;34.10;;;19.23;;
18042;SDS011;9146;48.074;11.968;2023-01-29T07:31:03;34.67;;;21.53;;
18042;SDS011;9146;48.074;11.968;2023-01-29T07:33:30;39.53;;;20.53;;
18042;SDS011;9146;48.074;11.968;2023-01-29T07:35:59;41.87;;;21.90;;
18042;SDS011;9146;48.074;11.968;2023-01-29T07:38:26;36.30;;;21.77;;
18042;SDS011;9146;48.074;11.968;2023-01-29T07:40:53;34.10;;;19.50;;
18042;SDS011;9146;48.074;11.968;2023-01-29T07:43:20;35.63;;;20.43;;
18042;SDS011;9146;48.074;11.968;2023-01-29T07:45:48;28.07;;;17.77;;
18042;SDS011;9146;48.074;11.968;2023-01-29T07:48:15;36.20;;;19.57;;
18042;SDS011;9146;48.074;11.968;2023-01-29T07:50:42;37.13;;;20.40;;
18042;SDS011;9146;48.074;11.968;2023-01-29T07:53:13;39.83;;;19.77;;
18042;SDS011;9146;48.074;11.968;2023-01-29T07:55:40;38.43;;;21.50;;
18042;SDS011;9146;48.074;11.968;2023-01-29T07:58:09;33.57;;;20.70;;
18042;SDS011;9146;48.074;11.968;2023-01-29T08:00:36;43.83;;;20.17;;
18042;SDS011;9146;48.074;11.968;2023-01-29T08:03:04;33.80;;;20.97;;
18042;SDS011;9146;48.074;11.968;2023-01-29T08:05:32;40.43;;;23.00;;
18042;SDS011;9146;48.074;11.968;2023-01-29T08:07:59;36.60;;;20.80;;
18042;SDS011;9146;48.074;11.968;2023-01-29T08:10:27;42.23;;;23.10;;
18042;SDS011;9146;48.074;11.968;2023-01-29T08:12:55;38.90;;;24.33;;
18042;SDS011;9146;48.074;11.968;2023-01-29T08:15:23;33.60;;;22.03;;
18042;SDS011;9146;48.074;11.968;2023-01-29T08:17:50;37.53;;;21.20;;
18042;SDS011;9146;48.074;11.968;2023-01-29T08:20:18;36.67;;;20.90;;
18042;SDS011;9146;48.074;11.968;2023-01-29T08:22:45;35.27;;;20.70;;
18042;SDS011;9146;48.074;11.968;2023-01-29T08:25:12;30.60;;;18.57;;
18042;SDS011;9146;48.074;11.968;2023-01-29T08:27:41;41.43;;;21.07;;
18042;SDS011;9146;48.074;11.968;2023-01-29T08:30:09;36.10;;;20.40;;
18042;SDS011;9146;48.074;11.968;2023-01-29T08:32:37;28.87;;;18.70;;
18042;SDS011;9146;48.074;11.968;2023-01-29T08:35:04;31.60;;;20.83;;
18042;SDS011;9146;48.074;11.968;2023-01-29T08:37:31;28.90;;;16.50;;
18042;SDS011;9146;48.074;11.968;2023-01-29T08:39:58;23.23;;;15.57;;
18042;SDS011;9146;48.074;11.968;2023-01-29T08:42:25;24.60;;;14.80;;
18042;SDS011;9146;48.074;11.968;2023-01-29T08:44:53;23.07;;;15.50;;
18042;SDS011;9146;48.074;11.968;2023-01-29T08:47:20;32.53;;;17.20;;
18042;SDS011;9146;48.074;11.968;2023-01-29T08:49:47;21.50;;;15.30;;
18042;SDS011;9146;48.074;11.968;2023-01-29T08:52:14;20.37;;;13.37;;
18042;SDS011;9146;48.074;11.968;2023-01-29T08:54:41;24.13;;;15.27;;
18042;SDS011;9146;48.074;11.968;2023-01-29T08:57:08;19.43;;;12.83;;
18042;SDS011;9146;48.074;11.968;2023-01-29T08:59:35;18.07;;;12.23;;
18042;SDS011;9146;48.074;11.968;2023-01-29T09:02:03;17.60;;;11.67;;
18042;SDS011;9146;48.074;11.968;2023-01-29T09:04:30;17.37;;;12.37;;
18042;SDS011;9146;48.074;11.968;2023-01-29T09:06:57;20.23;;;12.60;;
18042;SDS011;9146;48.074;11.968;2023-01-29T09:09:24;19.13;;;12.70;;
18042;SDS011;9146;48.074;11.968;2023-01-29T09:11:51;14.17;;;9.13;;
18042;SDS011;9146;48.074;11.968;2023-01-29T09:14:18;11.33;;;7.67;;
18042;SDS011;9146;48.074;11.968;2023-01-29T09:16:45;11.07;;;7.70;;
18042;SDS011;9146;48.074;11.968;2023-01-29T09:19:13;9.93;;;7.30;;
18042;SDS011;9146;48.074;11.968;2023-01-29T09:21:40;10.03;;;7.07;;
18042;SDS011;9146;48.074;11.968;2023-01-29T09:24:07;9.63;;;6.63;;
18042;SDS011;9146;48.074;11.968;2023-01-29T09:26:34;12.77;;;7.80;;
18042;SDS011;9146;48.074;11.968;2023-01-29T09:29:03;18.80;;;9.77;;
18042;SDS011;9146;48.074;11.968;2023-01-29T09:31:30;13.83;;;9.80;;
18042;SDS011;9146;48.074;11.968;2023-01-29T09:33:57;12.60;;;9.67;;
18042;SDS011;9146;48.074;11.968;2023-01-29T09:36:26;12.33;;;8.70;;
18042;SDS011;9146;48.074;11.968;2023-01-29T09:38:52;14.53;;;10.33;;
18042;SDS011;9146;48.074;11.968;2023-01-29T09:41:24;10.87;;;9.23;;
18042;SDS011;9146;48.074;11.968;2023-01-29T09:43:59;15.43;;;10.40;;
18042;SDS011;9146;48.074;11.968;2023-01-29T09:46:29;12.63;;;8.50;;
18042;SDS011;9146;48.074;11.968;2023-01-29T09:49:05;14.13;;;9.57;;
18042;SDS011;9146;48.074;11.968;2023-01-29T09:51:41;10.80;;;8.50;;
18042;SDS011;9146;48.074;11.968;2023-01-29T09:54:12;13.70;;;9.33;;
18042;SDS011;9146;48.074;11.968;2023-01-29T09:56:44;12.50;;;7.90;;
18042;SDS011;9146;48.074;11.968;2023-01-29T09:59:12;14.53;;;9.60;;
18042;SDS011;9146;48.074;11.968;2023-01-29T10:01:44;13.23;;;9.00;;
18042;SDS011;9146;48.074;11.968;2023-01-29T10:07:25;14.40;;;9.63;;
18042;SDS011;9146;48.074;11.968;2023-01-29T10:10:18;13.00;;;8.00;;
18042;SDS011;9146;48.074;11.968;2023-01-29T10:12:57;17.47;;;9.93;;
18042;SDS011;9146;48.074;11.968;2023-01-29T10:15:34;14.03;;;10.07;;
18042;SDS011;9146;48.074;11.968;2023-01-29T10:18:13;17.53;;;10.00;;
18042;SDS011;9146;48.074;11.968;2023-01-29T10:21:04;15.50;;;9.50;;
18042;SDS011;9146;48.074;11.968;2023-01-29T10:23:44;11.50;;;8.07;;
18042;SDS011;9146;48.074;11.968;2023-01-29T10:26:16;11.77;;;7.30;;
18042;SDS011;9146;48.074;11.968;2023-01-29T10:28:46;16.27;;;9.40;;
18042;SDS011;9146;48.074;11.968;2023-01-29T10:31:16;16.57;;;8.27;;
18042;SDS011;9146;48.074;11.968;2023-01-29T10:33:47;14.60;;;10.10;;
18042;SDS011;9146;48.074;11.968;2023-01-29T10:36:18;11.63;;;7.70;;
18042;SDS011;9146;48.074;11.968;2023-01-29T10:38:49;10.80;;;7.60;;
18042;SDS011;9146;48.074;11.968;2023-01-29T10:41:18;11.20;;;7.77;;
18042;SDS011;9146;48.074;11.968;2023-01-29T10:43:57;11.70;;;7.10;;
18042;SDS011;9146;48.074;11.968;2023-01-29T10:46:34;16.20;;;8.90;;
18042;SDS011;9146;48.074;11.968;2023-01-29T10:49:19;13.23;;;9.77;;
18042;SDS011;9146;48.074;11.968;2023-01-29T10:52:02;12.07;;;8.40;;
18042;SDS011;9146;48.074;11.968;2023-01-29T10:54:44;14.73;;;8.30;;
18042;SDS011;9146;48.074;11.968;2023-01-29T10:57:18;10.67;;;7.47;;
18042;SDS011;9146;48.074;11.968;2023-01-29T11:00:00;11.80;;;8.07;;
18042;SDS011;9146;48.074;11.968;2023-01-29T11:02:34;11.70;;;7.57;;
18042;SDS011;9146;48.074;11.968;2023-01-29T11:05:01;9.90;;;7.67;;
18042;SDS011;9146;48.074;11.968;2023-01-29T11:07:28;12.07;;;7.67;;
18042;SDS011;9146;48.074;11.968;2023-01-29T11:09:59;8.20;;;7.37;;
18042;SDS011;9146;48.074;11.968;2023-01-29T11:12:33;9.43;;;7.30;;
18042;SDS011;9146;48.074;11.968;2023-01-29T11:15:04;11.83;;;9.07;;
18042;SDS011;9146;48.074;11.968;2023-01-29T11:17:39;9.80;;;7.43;;
18042;SDS011;9146;48.074;11.968;2023-01-29T11:20:27;11.70;;;8.17;;
18042;SDS011;9146;48.074;11.968;2023-01-29T11:22:56;12.67;;;8.13;;
18042;SDS011;9146;48.074;11.968;2023-01-29T11:25:25;9.87;;;7.57;;
18042;SDS011;9146;48.074;11.968;2023-01-29T11:27:56;14.33;;;8.83;;
18042;SDS011;9146;48.074;11.968;2023-01-29T11:30:26;15.13;;;9.63;;
18042;SDS011;9146;48.074;11.968;2023-01-29T11:32:58;13.27;;;10.13;;
18042;SDS011;9146;48.074;11.968;2023-01-29T11:35:32;14.80;;;10.30;;
18042;SDS011;9146;48.074;11.968;2023-01-29T11:38:07;13.07;;;9.03;;
18042;SDS011;9146;48.074;11.968;2023-01-29T11:40:45;13.50;;;8.60;;
18042;SDS011;9146;48.074;11.968;2023-01-29T11:43:15;10.87;;;7.97;;
18042;SDS011;9146;48.074;11.968;2023-01-29T11:45:48;11.40;;;8.83;;
18042;SDS011;9146;48.074;11.968;2023-01-29T11:48:18;13.80;;;8.87;;
18042;SDS011;9146;48.074;11.968;2023-01-29T11:50:50;22.53;;;12.17;;
18042;SDS011;9146;48.074;11.968;2023-01-29T11:53:23;17.40;;;11.20;;
18042;SDS011;9146;48.074;11.968;2023-01-29T11:56:18;16.60;;;9.83;;
18042;SDS011;9146;48.074;11.968;2023-01-29T11:58:47;11.73;;;8.40;;
18042;SDS011;9146;48.074;11.968;2023-01-29T12:01:17;12.57;;;8.97;;
18042;SDS011;9146;48.074;11.968;2023-01-29T12:03:53;14.97;;;9.43;;
18042;SDS011;9146;48.074;11.968;2023-01-29T12:06:20;13.47;;;8.40;;
18042;SDS011;9146;48.074;11.968;2023-01-29T12:08:53;13.90;;;10.33;;
18042;SDS011;9146;48.074;11.968;2023-01-29T12:11:26;12.30;;;8.90;;
18042;SDS011;9146;48.074;11.968;2023-01-29T12:13:55;12.70;;;9.60;;
18042;SDS011;9146;48.074;11.968;2023-01-29T12:16:24;15.03;;;9.40;;
18042;SDS011;9146;48.074;11.968;2023-01-29T12:18:55;15.63;;;9.80;;
18042;SDS011;9146;48.074;11.968;2023-01-29T12:21:29;12.30;;;9.13;;
18042;SDS011;9146;48.074;11.968;2023-01-29T12:24:02;14.50;;;9.50;;
18042;SDS011;9146;48.074;11.968;2023-01-29T12:26:38;12.73;;;8.80;;
18042;SDS011;9146;48.074;11.968;2023-01-29T12:29:15;12.40;;;9.47;;
18042;SDS011;9146;48.074;11.968;2023-01-29T12:31:52;15.50;;;9.37;;
18042;SDS011;9146;48.074;11.968;2023-01-29T12:34:26;13.83;;;9.63;;
18042;SDS011;9146;48.074;11.968;2023-01-29T12:37:02;17.30;;;9.60;;
18042;SDS011;9146;48.074;11.968;2023-01-29T12:39:36;15.80;;;10.50;;
18042;SDS011;9146;48.074;11.968;2023-01-29T12:42:07;14.17;;;8.50;;
18042;SDS011;9146;48.074;11.968;2023-01-29T12:44:40;15.00;;;10.60;;
18042;SDS011;9146;48.074;11.968;2023-01-29T12:47:11;15.83;;;10.47;;
18042;SDS011;9146;48.074;11.968;2023-01-29T12:49:43;13.20;;;8.63;;
18042;SDS011;9146;48.074;11.968;2023-01-29T12:52:16;11.33;;;8.90;;
18042;SDS011;9146;48.074;11.968;2023-01-29T12:54:48;13.30;;;9.07;;
18042;SDS011;9146;48.074;11.968;2023-01-29T12:57:22;10.37;;;8.20;;
18042;SDS011;9146;48.074;11.968;2023-01-29T12:59:56;18.10;;;8.73;;
18042;SDS011;9146;48.074;11.968;2023-01-29T13:02:30;13.13;;;8.70;;
18042;SDS011;9146;48.074;11.968;2023-01-29T13:05:01;9.43;;;7.53;;
18042;SDS011;9146;48.074;11.968;2023-01-29T13:07:32;12.73;;;8.77;;
18042;SDS011;9146;48.074;11.968;2023-01-29T13:10:06;12.50;;;8.90;;
18042;SDS011;9146;48.074;11.968;2023-01-29T13:12:37;14.03;;;7.40;;
18042;SDS011;9146;48.074;11.968;2023-01-29T13:15:11;11.13;;;8.00;;
18042;SDS011;9146;48.074;11.968;2023-01-29T13:17:46;10.83;;;8.20;;
18042;SDS011;9146;48.074;11.968;2023-01-29T13:20:18;10.03;;;7.70;;
18042;SDS011;9146;48.074;11.968;2023-01-29T13:22:49;15.63;;;9.33;;
18042;SDS011;9146;48.074;11.968;2023-01-29T13:25:18;13.03;;;8.80;;
18042;SDS011;9146;48.074;11.968;2023-01-29T13:27:47;11.70;;;8.27;;
18042;SDS011;9146;48.074;11.968;2023-01-29T13:30:24;11.93;;;8.93;;
18042;SDS011;9146;48.074;11.968;2023-01-29T13:32:53;12.70;;;8.67;;
18042;SDS011;9146;48.074;11.968;2023-01-29T13:35:32;11.00;;;7.70;;
18042;SDS011;9146;48.074;11.968;2023-01-29T13:38:01;12.80;;;9.00;;
18042;SDS011;9146;48.074;11.968;2023-01-29T13:40:30;12.43;;;7.80;;
18042;SDS011;9146;48.074;11.968;2023-01-29T13:43:01;12.97;;;8.90;;
18042;SDS011;9146;48.074;11.968;2023-01-29T13:45:31;12.77;;;8.40;;
18042;SDS011;9146;48.074;11.968;2023-01-29T13:48:11;12.80;;;8.30;;
18042;SDS011;9146;48.074;11.968;2023-01-29T13:50:47;8.77;;;6.80;;
18042;SDS011;9146;48.074;11.968;2023-01-29T13:53:20;6.33;;;5.40;;
18042;SDS011;9146;48.074;11.968;2023-01-29T13:55:50;9.30;;;6.20;;
18042;SDS011;9146;48.074;11.968;2023-01-29T13:58:50;10.67;;;7.57;;
18042;SDS011;9146;48.074;11.968;2023-01-29T14:01:21;7.87;;;6.10;;
18042;SDS011;9146;48.074;11.968;2023-01-29T14:04:29;7.27;;;5.90;;
18042;SDS011;9146;48.074;11.968;2023-01-29T14:06:57;8.50;;;6.90;;
18042;SDS011;9146;48.074;11.968;2023-01-29T14:17:59;9.40;;;6.80;;
18042;SDS011;9146;48.074;11.968;2023-01-29T14:20:32;9.47;;;6.30;;
18042;SDS011;9146;48.074;11.968;2023-01-29T14:23:02;9.13;;;5.83;;
18042;SDS011;9146;48.074;11.968;2023-01-29T14:25:31;6.83;;;5.50;;
18042;SDS011;9146;48.074;11.968;2023-01-29T14:28:02;9.27;;;5.90;;
18042;SDS011;9146;48.074;11.968;2023-01-29T14:30:44;7.07;;;6.23;;
18042;SDS011;9146;48.074;11.968;2023-01-29T14:33:24;6.43;;;5.30;;
18042;SDS011;9146;48.074;11.968;2023-01-29T14:35:54;9.57;;;6.00;;
18042;SDS011;9146;48.074;11.968;2023-01-29T14:38:23;10.73;;;5.97;;
18042;SDS011;9146;48.074;11.968;2023-01-29T14:41:01;7.63;;;5.07;;
18042;SDS011;9146;48.074;11.968;2023-01-29T14:43:31;10.77;;;6.30;;
18042;SDS011;9146;48.074;11.968;2023-01-29T14:49:00;6.97;;;5.87;;
18042;SDS011;9146;48.074;11.968;2023-01-29T14:51:30;11.90;;;6.07;;
18042;SDS011;9146;48.074;11.968;2023-01-29T14:54:02;9.40;;;6.13;;
18042;SDS011;9146;48.074;11.968;2023-01-29T14:56:39;8.90;;;6.50;;
18042;SDS011;9146;48.074;11.968;2023-01-29T14:59:15;6.70;;;5.10;;
18042;SDS011;9146;48.074;11.968;2023-01-29T15:01:46;7.73;;;6.17;;
18042;SDS011;9146;48.074;11.968;2023-01-29T15:04:19;9.10;;;5.80;;
18042;SDS011;9146;48.074;11.968;2023-01-29T15:06:50;6.13;;;5.17;;
18042;SDS011;9146;48.074;11.968;2023-01-29T15:09:27;9.07;;;5.90;;
18042;SDS011;9146;48.074;11.968;2023-01-29T15:12:02;8.27;;;6.70;;